Galileo — SX2040 — position and weather

sailwx.info

Track history (hours):
 
Tides and Currents Weather Stations Pressure Air Temp Water Temp Dewpoint Dewpoint Depression Visibility Wind Speed Wind Dir Waves Ship Positions

Galileo

Last reported at 2016-Oct-01 00:33 UTC. Time now 2016-Oct-01 03:14 UTC.
Position N 37°56' E 023°39'.

Length 40 m; draft 3 m.

Type: Passenger vessel. MMSI: 239299000.

Date/timePositionNaut miles runAvg speedWind from/ knotsBaromVisibWave heightAir tempDewpointWater temp
2016-Oct-01 00:33N 37°56' E 023°39'0 0.0
2016-Sep-30 22:34N 37°56' E 023°39'0 0.0
2016-Sep-30 20:33N 37°56' E 023°39'0 0.0
2016-Sep-30 17:34N 37°56' E 023°39'0 0.0
2016-Sep-30 16:34N 37°56' E 023°39'13 6.5
2016-Sep-30 14:33N 37°44' E 023°47'10 9.8
2016-Sep-30 13:30N 37°38' E 023°57'55 5.5
2016-Sep-30 03:33N 37°30' E 025°05'10 9.9
2016-Sep-30 02:34N 37°28' E 025°17'2 0.6
2016-Sep-29 23:34N 37°28' E 025°20'0 0.0
2016-Sep-29 21:33N 37°28' E 025°20'0 0.0
2016-Sep-29 20:33N 37°28' E 025°20'0 0.0
2016-Sep-29 19:33N 37°28' E 025°20'0 0.0
2016-Sep-29 16:34N 37°28' E 025°20'0 0.0
2016-Sep-29 15:33N 37°28' E 025°20'6 5.9
2016-Sep-29 14:34N 37°27' E 025°12'12 0.3
2016-Sep-28 03:32N 37°15' E 025°13'9 9.3
2016-Sep-28 02:34N 37°08' E 025°20'2 2.3
2016-Sep-28 01:34N 37°06' E 025°22'0 0.0
2016-Sep-27 23:34N 37°06' E 025°22'0 0.0
2016-Sep-27 19:34N 37°06' E 025°22'0 0.0
2016-Sep-27 14:34N 37°06' E 025°22'0 0.0
2016-Sep-27 13:34N 37°06' E 025°22'0 0.0
2016-Sep-27 10:34N 37°06' E 025°22'0 0.0
2016-Sep-27 00:34N 37°06' E 025°22'84 1.7
2016-Sep-24 22:27N 37°24' E 023°38'910.0
2016-Sep-24 21:33N 37°29' E 023°29'2 1.0
2016-Sep-24 19:33N 37°30' E 023°27'0 0.0
2016-Sep-24 18:33N 37°30' E 023°27'0 0.0
2016-Sep-24 17:33N 37°30' E 023°27'0 0.0
2016-Sep-24 16:33N 37°30' E 023°27'10 5.2
2016-Sep-24 14:33N 37°40' E 023°32'17 8.5
2016-Sep-24 12:33N 37°56' E 023°39'0 0.0
2016-Sep-24 10:33N 37°56' E 023°39'0 0.0
2016-Sep-24 09:33N 37°56' E 023°39'0 0.0
2016-Sep-24 03:33N 37°56' E 023°39'0 0.0
2016-Sep-24 02:33N 37°56' E 023°39'0 0.0
2016-Sep-24 01:33N 37°56' E 023°39'0 0.0
2016-Sep-24 00:33N 37°56' E 023°39'0 0.0
2016-Sep-23 19:33N 37°56' E 023°39'0 0.0
2016-Sep-23 17:33N 37°56' E 023°39'0 0.0
2016-Sep-23 16:33N 37°56' E 023°39'3 2.8
2016-Sep-23 15:33N 37°54' E 023°41'20 9.8
2016-Sep-23 13:32N 37°38' E 023°57'  
2016-Sep-21 08:33N 37°28' E 025°20'13 2.6
2016-Sep-21 03:33N 37°15' E 025°19'9 8.8
2016-Sep-21 02:33N 37°06' E 025°22'  
Track history (hours):
 
Tides and Currents Weather Stations Pressure Air Temp Water Temp Dewpoint Dewpoint Depression Visibility Wind Speed Wind Dir Waves Ship Positions

Galileo

Last reported at 2016-Oct-01 00:33 UTC. Time now 2016-Oct-01 03:14 UTC.
Position N 37°56' E 023°39'.

Length 40 m; draft 3 m.

Type: Passenger vessel. MMSI: 239299000.

Date/timePositionNaut miles runAvg speedWind from/ knotsBaromVisibWave heightAir tempDewpointWater temp
2016-Oct-01 00:33N 37°56' E 023°39'0 0.0
2016-Sep-30 22:34N 37°56' E 023°39'0 0.0
2016-Sep-30 20:33N 37°56' E 023°39'0 0.0
2016-Sep-30 17:34N 37°56' E 023°39'0 0.0
2016-Sep-30 16:34N 37°56' E 023°39'13 6.5
2016-Sep-30 14:33N 37°44' E 023°47'10 9.8
2016-Sep-30 13:30N 37°38' E 023°57'55 5.5
2016-Sep-30 03:33N 37°30' E 025°05'10 9.9
2016-Sep-30 02:34N 37°28' E 025°17'2 0.6
2016-Sep-29 23:34N 37°28' E 025°20'0 0.0
2016-Sep-29 21:33N 37°28' E 025°20'0 0.0
2016-Sep-29 20:33N 37°28' E 025°20'0 0.0
2016-Sep-29 19:33N 37°28' E 025°20'0 0.0
2016-Sep-29 16:34N 37°28' E 025°20'0 0.0
2016-Sep-29 15:33N 37°28' E 025°20'6 5.9
2016-Sep-29 14:34N 37°27' E 025°12'12 0.3
2016-Sep-28 03:32N 37°15' E 025°13'9 9.3
2016-Sep-28 02:34N 37°08' E 025°20'2 2.3
2016-Sep-28 01:34N 37°06' E 025°22'0 0.0
2016-Sep-27 23:34N 37°06' E 025°22'0 0.0
2016-Sep-27 19:34N 37°06' E 025°22'0 0.0
2016-Sep-27 14:34N 37°06' E 025°22'0 0.0
2016-Sep-27 13:34N 37°06' E 025°22'0 0.0
2016-Sep-27 10:34N 37°06' E 025°22'0 0.0
2016-Sep-27 00:34N 37°06' E 025°22'84 1.7
2016-Sep-24 22:27N 37°24' E 023°38'910.0
2016-Sep-24 21:33N 37°29' E 023°29'2 1.0
2016-Sep-24 19:33N 37°30' E 023°27'0 0.0
2016-Sep-24 18:33N 37°30' E 023°27'0 0.0
2016-Sep-24 17:33N 37°30' E 023°27'0 0.0
2016-Sep-24 16:33N 37°30' E 023°27'10 5.2
2016-Sep-24 14:33N 37°40' E 023°32'17 8.5
2016-Sep-24 12:33N 37°56' E 023°39'0 0.0
2016-Sep-24 10:33N 37°56' E 023°39'0 0.0
2016-Sep-24 09:33N 37°56' E 023°39'0 0.0
2016-Sep-24 03:33N 37°56' E 023°39'0 0.0
2016-Sep-24 02:33N 37°56' E 023°39'0 0.0
2016-Sep-24 01:33N 37°56' E 023°39'0 0.0
2016-Sep-24 00:33N 37°56' E 023°39'0 0.0
2016-Sep-23 19:33N 37°56' E 023°39'0 0.0
2016-Sep-23 17:33N 37°56' E 023°39'0 0.0
2016-Sep-23 16:33N 37°56' E 023°39'3 2.8
2016-Sep-23 15:33N 37°54' E 023°41'20 9.8
2016-Sep-23 13:32N 37°38' E 023°57'  
2016-Sep-21 08:33N 37°28' E 025°20'13 2.6
2016-Sep-21 03:33N 37°15' E 025°19'9 8.8
2016-Sep-21 02:33N 37°06' E 025°22'  

Dump ship's entire track history